Time;durP1;ratioP1;P1;durP2;ratioP2;P2;SDS_P1;SDS_P2;PMS_P1;PMS_P2;Temp;Humidity;BMP_temperature;BMP_pressure;BME280_temperature;BME280_humidity;BME280_pressure;Samples;Min_cycle;Max_cycle;Signal;HPM_P1;HPM_P2
2022/04/28 04:01:52;;;;;;;9.48;6.50;;;;;;;12.76;83.94;100948.63;5605231;31;75304;-55
2022/04/28 04:04:55;;;;;;;7.87;6.12;;;;;;;12.76;83.94;100948.63;5583186;32;34732;-56
2022/04/28 04:07:57;;;;;;;8.40;6.45;;;;;;;12.33;82.30;100951.06;5583283;31;34125;-55
2022/04/28 04:10:59;;;;;;;7.60;6.20;;;;;;;12.42;81.01;100953.97;5583461;31;34307;-55
2022/04/28 04:14:01;;;;;;;8.20;6.55;;;;;;;12.42;83.52;100949.37;5583373;31;33800;-55
2022/04/28 04:17:05;;;;;;;9.93;6.00;;;;;;;12.42;81.77;100952.06;5585965;31;33921;-55
2022/04/28 04:20:09;;;;;;;8.23;5.78;;;;;;;12.52;76.56;100956.59;5600715;31;33309;-55
2022/04/28 04:23:11;;;;;;;6.82;5.20;;;;;;;12.58;78.40;100960.84;5600403;31;33668;-55
2022/04/28 04:26:13;;;;;;;7.53;6.03;;;;;;;12.59;78.68;100953.59;5602009;31;34268;-55
2022/04/28 04:29:16;;;;;;;8.60;5.93;;;;;;;12.54;80.52;100962.47;5595073;31;34490;-55
2022/04/28 04:32:18;;;;;;;8.93;6.60;;;;;;;12.58;78.33;100958.16;5582982;32;34297;-55
2022/04/28 04:35:23;;;;;;;9.98;5.68;;;;;;;12.46;81.53;100957.69;5583167;31;33429;-55
2022/04/28 04:38:26;;;;;;;8.70;6.03;;;;;;;12.35;80.73;100959.66;5582870;31;33310;-55
2022/04/28 04:41:29;;;;;;;7.43;5.87;;;;;;;12.40;80.98;100962.28;5583007;32;33569;-55
2022/04/28 04:44:31;;;;;;;8.25;6.30;;;;;;;12.43;79.49;100956.38;5581800;32;34429;-55
2022/04/28 04:47:34;;;;;;;8.25;5.90;;;;;;;12.40;82.10;100956.13;5581492;31;34119;-55
2022/04/28 04:50:38;;;;;;;8.23;6.53;;;;;;;12.32;81.03;100952.13;5582676;32;33385;-54
2022/04/28 04:53:40;;;;;;;8.27;6.70;;;;;;;12.59;75.02;100961.66;5587273;31;33301;-55
2022/04/28 04:56:43;;;;;;;8.65;6.35;;;;;;;12.61;79.05;100971.03;5588830;31;33998;-55
2022/04/28 04:59:45;;;;;;;7.10;5.70;;;;;;;12.70;76.89;100965.87;5582600;31;33516;-55
2022/04/28 05:02:47;;;;;;;8.45;6.85;;;;;;;12.80;75.13;100973.06;5582028;31;34865;-55
2022/04/28 05:05:53;;;;;;;10.02;6.57;;;;;;;12.88;78.44;100973.28;5581161;31;33261;-55
2022/04/28 05:08:55;;;;;;;7.25;6.37;;;;;;;12.85;74.98;100973.84;5582348;32;34222;-55
2022/04/28 05:11:58;;;;;;;10.50;6.90;;;;;;;12.81;76.65;100969.28;5575168;31;33113;-55
2022/04/28 05:15:03;;;;;;;9.20;6.85;;;;;;;12.78;81.09;100980.59;5568358;31;33214;-56
2022/04/28 05:18:06;;;;;;;8.23;7.32;;;;;;;12.70;81.78;100979.31;5570823;31;33790;-55
2022/04/28 05:21:08;;;;;;;10.45;7.28;;;;;;;12.65;82.95;100990.94;5568920;31;33316;-56
2022/04/28 05:24:16;;;;;;;10.15;6.97;;;;;;;12.67;84.05;100985.25;5579206;31;33051;-56
2022/04/28 05:27:19;;;;;;;7.78;6.57;;;;;;;12.74;81.81;100984.94;5568309;31;33251;-56
2022/04/28 05:30:22;;;;;;;8.00;6.75;;;;;;;12.78;78.68;100999.44;5568684;31;33426;-56
2022/04/28 05:33:25;;;;;;;9.13;7.32;;;;;;;12.74;83.26;101001.09;5563684;31;33290;-57
2022/04/28 05:36:29;;;;;;;10.38;7.40;;;;;;;12.69;81.97;100999.25;5553690;31;33645;-55
2022/04/28 05:39:32;;;;;;;12.85;8.48;;;;;;;12.74;83.40;100996.50;5567157;32;33991;-56
2022/04/28 05:45:56;;;;;;;10.07;7.60;;;;;;;12.87;86.86;100998.56;5582185;31;33681;-56
2022/04/28 05:48:59;;;;;;;9.45;7.78;;;;;;;12.88;86.40;100997.50;5580144;31;33626;-55
2022/04/28 05:52:01;;;;;;;9.98;7.87;;;;;;;12.97;86.17;101002.28;5564154;31;33660;-55
2022/04/28 05:55:05;;;;;;;12.02;7.18;;;;;;;12.98;85.09;101010.09;5568001;32;33364;-55
2022/04/28 05:58:07;;;;;;;10.75;6.95;;;;;;;13.21;78.35;101000.47;5565901;31;33372;-54
2022/04/28 06:01:10;;;;;;;9.00;7.10;;;;;;;13.27;80.63;101017.41;5557544;32;34149;-56
2022/04/28 06:04:13;;;;;;;10.63;7.18;;;;;;;13.16;78.88;101016.66;5548936;32;34056;-54
2022/04/28 06:07:16;;;;;;;10.68;7.60;;;;;;;13.28;79.96;101010.97;5562696;32;33736;-56
2022/04/28 06:10:20;;;;;;;9.30;6.72;;;;;;;13.22;83.30;101009.34;5567604;32;33142;-56
2022/04/28 06:13:25;;;;;;;9.65;6.75;;;;;;;13.27;77.35;101015.50;5568194;32;33439;-55
2022/04/28 06:16:30;;;;;;;9.90;6.68;;;;;;;13.37;78.72;101020.00;5560136;32;33337;-55
2022/04/28 06:19:33;;;;;;;8.57;6.25;;;;;;;13.46;75.86;101014.81;5556886;32;33449;-55
2022/04/28 06:22:38;;;;;;;8.95;6.20;;;;;;;13.63;72.51;101020.56;5566192;31;33220;-55
2022/04/28 06:25:41;;;;;;;11.93;6.47;;;;;;;13.60;73.15;101023.84;5568334;32;34328;-55
2022/04/28 06:28:45;;;;;;;7.55;6.37;;;;;;;13.67;72.63;101023.50;5577518;31;33625;-55
2022/04/28 06:31:47;;;;;;;10.10;5.95;;;;;;;13.59;72.80;101027.63;5581798;31;34331;-55
2022/04/28 06:34:51;;;;;;;9.32;6.00;;;;;;;13.68;72.36;101030.53;5568146;31;34309;-56
2022/04/28 06:37:54;;;;;;;7.53;5.60;;;;;;;13.71;69.58;101032.63;5566855;31;33385;-56
2022/04/28 06:40:56;;;;;;;7.47;5.70;;;;;;;13.68;71.11;101027.81;5565093;31;33259;-55
2022/04/28 06:43:59;;;;;;;7.90;5.35;;;;;;;13.73;69.69;101028.56;5566700;32;34324;-55
2022/04/28 06:47:05;;;;;;;8.02;5.60;;;;;;;13.72;68.89;101034.25;5548018;32;34749;-57
2022/04/28 06:50:10;;;;;;;6.45;5.12;;;;;;;13.77;69.88;101028.78;5548012;32;33191;-55
2022/04/28 06:53:16;;;;;;;8.38;5.10;;;;;;;13.95;76.48;101030.75;5566355;32;33329;-56
2022/04/28 06:56:19;;;;;;;7.12;5.28;;;;;;;13.94;67.89;101031.03;5564740;31;34507;-55
2022/04/28 06:59:24;;;;;;;7.55;5.12;;;;;;;13.93;66.35;101030.22;5561202;32;33172;-56
2022/04/28 07:02:27;;;;;;;6.47;4.97;;;;;;;14.01;69.57;101026.91;5567461;32;34362;-55
2022/04/28 07:05:30;;;;;;;7.37;4.62;;;;;;;14.10;65.33;101024.38;5567995;31;34100;-56
2022/04/28 07:08:32;;;;;;;9.52;5.62;;;;;;;14.14;64.92;101021.91;5567101;32;34515;-54
2022/04/28 07:11:34;;;;;;;8.10;5.80;;;;;;;14.27;71.81;101026.59;5568364;32;34476;-55
2022/04/28 07:14:38;;;;;;;6.65;4.95;;;;;;;14.24;63.42;101022.59;5567724;31;32574;-55
2022/04/28 07:17:43;;;;;;;7.47;5.03;;;;;;;14.31;64.78;101020.34;5565934;31;33452;-55
2022/04/28 07:20:45;;;;;;;8.35;5.18;;;;;;;14.30;64.39;101026.03;5559892;31;33347;-54
2022/04/28 07:23:48;;;;;;;7.35;4.90;;;;;;;14.30;63.42;101034.94;5559502;31;33607;-55
2022/04/28 07:26:50;;;;;;;7.75;4.93;;;;;;;14.40;66.14;101033.97;5567846;32;34444;-55
2022/04/28 07:29:53;;;;;;;10.80;5.15;;;;;;;14.25;62.39;101036.87;5563625;32;33503;-56
2022/04/28 07:32:55;;;;;;;7.40;4.70;;;;;;;14.42;66.90;101047.19;5564981;32;33657;-55
2022/04/28 07:36:04;;;;;;;8.07;5.22;;;;;;;14.29;62.21;101046.00;5567440;32;33234;-55
2022/04/28 07:39:11;;;;;;;7.25;4.90;;;;;;;14.29;65.34;101054.88;5557041;31;33391;-55
2022/04/28 07:42:14;;;;;;;7.50;4.75;;;;;;;14.33;64.83;101058.59;5574540;31;34099;-55
2022/04/28 07:45:16;;;;;;;6.55;4.57;;;;;;;14.33;63.56;101055.91;5581900;31;34230;-55
2022/04/28 07:48:19;;;;;;;6.85;4.87;;;;;;;14.50;61.79;101063.59;5567987;31;34322;-56
2022/04/28 07:51:21;;;;;;;12.25;4.87;;;;;;;14.60;69.90;101065.31;5567230;32;34128;-55
2022/04/28 07:54:23;;;;;;;9.90;4.70;;;;;;;14.57;61.58;101061.31;5566236;31;33335;-55
2022/04/28 07:57:26;;;;;;;6.75;4.45;;;;;;;14.73;61.96;101056.50;5570953;31;33211;-55
2022/04/28 08:00:31;;;;;;;7.07;4.03;;;;;;;14.73;61.55;101059.19;5554749;32;33582;-56
2022/04/28 08:03:34;;;;;;;6.43;4.68;;;;;;;14.82;61.05;101064.75;5553697;32;33227;-55
2022/04/28 08:06:37;;;;;;;5.45;4.50;;;;;;;15.05;68.48;101054.97;5568844;31;33364;-55
2022/04/28 08:09:40;;;;;;;8.63;4.35;;;;;;;15.17;60.76;101057.22;5575193;31;34021;-54
2022/04/28 08:12:45;;;;;;;6.75;3.92;;;;;;;15.21;60.10;101056.34;5568566;31;33276;-55
2022/04/28 08:15:57;;;;;;;10.40;3.90;;;;;;;15.47;62.87;101067.53;5561703;32;33235;-55
2022/04/28 08:19:02;;;;;;;7.75;4.45;;;;;;;15.58;56.41;101060.03;5566585;31;34208;-55
2022/04/28 08:22:05;;;;;;;4.95;3.90;;;;;;;15.66;61.48;101059.41;5564412;32;33385;-55
2022/04/28 08:25:08;;;;;;;9.20;4.53;;;;;;;15.62;55.34;101066.47;5558757;32;34050;-56
2022/04/28 08:28:11;;;;;;;5.40;3.85;;;;;;;15.59;58.69;101066.25;5563476;31;34288;-55
2022/04/28 08:31:13;;;;;;;9.75;4.18;;;;;;;15.64;57.97;101077.00;5559987;31;34351;-54
2022/04/28 08:34:22;;;;;;;5.60;3.92;;;;;;;15.47;55.94;101072.94;5561417;31;33338;-55
2022/04/28 08:37:24;;;;;;;6.78;4.25;;;;;;;15.61;56.59;101078.38;5562610;32;35474;-55
2022/04/28 08:40:28;;;;;;;8.35;4.50;;;;;;;15.70;61.95;101076.63;5559316;32;34121;-55
2022/04/28 08:43:35;;;;;;;5.45;4.00;;;;;;;15.60;55.70;101074.06;5563394;31;33687;-55
2022/04/28 08:46:52;;;;;;;7.10;4.28;;;;;;;15.84;61.86;101079.34;5565764;31;34235;-55
2022/04/28 08:49:55;;;;;;;7.18;4.53;;;;;;;15.91;63.98;101074.34;5568069;32;34430;-56
2022/04/28 08:53:00;;;;;;;8.75;4.65;;;;;;;16.16;62.07;101075.78;5568214;31;33825;-55
2022/04/28 08:56:03;;;;;;;6.35;4.28;;;;;;;16.18;55.88;101091.69;5570453;31;33463;-55
2022/04/28 08:59:07;;;;;;;7.32;4.18;;;;;;;16.19;53.42;101085.19;5572322;31;34229;-55
2022/04/28 09:02:11;;;;;;;6.22;4.35;;;;;;;16.19;56.25;101087.87;5562485;31;33453;-55
2022/04/28 09:05:19;;;;;;;6.35;4.78;;;;;;;16.23;50.43;101082.69;5555358;32;33360;-55
2022/04/28 09:08:23;;;;;;;6.32;4.10;;;;;;;16.17;50.26;101084.69;5581353;31;32023;-54
2022/04/28 09:11:29;;;;;;;5.78;3.80;;;;;;;16.23;50.39;101090.81;5565179;31;33363;-55
2022/04/28 09:14:42;;;;;;;6.78;4.12;;;;;;;16.31;52.81;101093.59;5566969;31;33217;-55
2022/04/28 09:17:46;;;;;;;6.60;4.50;;;;;;;16.24;52.69;101085.09;5569096;31;33398;-56
2022/04/28 09:20:50;;;;;;;6.18;4.10;;;;;;;16.35;51.68;101089.19;5572641;31;34370;-55
2022/04/28 09:23:53;;;;;;;5.40;4.03;;;;;;;16.43;55.35;101093.09;5568249;31;33231;-56
2022/04/28 09:26:56;;;;;;;6.57;4.40;;;;;;;16.59;52.42;101082.78;5568556;31;33443;-55
2022/04/28 09:29:59;;;;;;;5.32;3.95;;;;;;;16.80;51.98;101096.69;5564191;31;33244;-55
2022/04/28 09:33:13;;;;;;;7.00;4.00;;;;;;;16.76;48.94;101082.97;5562536;31;33161;-55
2022/04/28 09:36:17;;;;;;;6.35;4.32;;;;;;;16.82;55.53;101094.47;5567698;32;33431;-54
2022/04/28 09:42:44;;;;;;;7.65;4.62;;;;;;;17.20;53.56;101088.75;5565716;32;34298;-55
2022/04/28 09:45:49;;;;;;;6.78;4.35;;;;;;;17.35;54.62;101097.31;5575435;31;33478;-55
2022/04/28 09:48:52;;;;;;;5.90;4.00;;;;;;;17.35;53.41;101089.19;5567575;31;33497;-54
2022/04/28 09:52:02;;;;;;;5.75;4.15;;;;;;;17.31;46.68;101096.31;5572035;31;32839;-55
2022/04/28 09:55:06;;;;;;;6.87;4.40;;;;;;;17.32;48.58;101097.94;5568690;32;33502;-55
2022/04/28 09:58:11;;;;;;;6.18;4.53;;;;;;;17.18;47.74;101090.94;5568746;31;33454;-55
2022/04/28 10:01:15;;;;;;;5.90;4.43;;;;;;;17.10;55.26;101106.03;5569060;31;34363;-55
2022/04/28 10:04:18;;;;;;;7.12;4.35;;;;;;;17.12;49.29;101104.63;5559555;32;34411;-55
2022/04/28 10:07:23;;;;;;;5.05;3.92;;;;;;;17.12;49.05;101109.25;5563577;32;34421;-55
2022/04/28 10:10:28;;;;;;;5.75;4.43;;;;;;;17.03;47.75;101094.81;5564600;32;34331;-55
2022/04/28 10:13:31;;;;;;;7.50;4.40;;;;;;;16.84;49.04;101098.47;5567590;31;33354;-54
2022/04/28 10:16:36;;;;;;;7.05;4.53;;;;;;;16.91;48.93;101101.56;5563341;31;34306;-55
2022/04/28 10:19:43;;;;;;;5.28;4.15;;;;;;;17.04;54.36;101097.22;5575840;31;33672;-56
2022/04/28 10:22:50;;;;;;;7.37;3.87;;;;;;;17.03;48.83;101098.34;5574308;31;33227;-55
2022/04/28 10:33:00;;;;;;;9.52;4.65;;;;;;;17.12;48.60;101082.97;5566253;32;33694;-55
2022/04/28 10:36:04;;;;;;;7.95;4.82;;;;;;;17.19;47.35;101098.78;5563486;31;34266;-55
2022/04/28 10:39:08;;;;;;;7.05;4.60;;;;;;;17.22;47.75;101091.94;5566344;32;33757;-55
2022/04/28 10:42:19;;;;;;;5.70;4.12;;;;;;;17.26;51.04;101090.22;5558050;31;33684;-55
2022/04/28 10:45:24;;;;;;;7.97;4.30;;;;;;;17.30;47.59;101092.00;5566804;32;33164;-55
2022/04/28 10:48:35;;;;;;;5.60;4.10;;;;;;;17.26;48.43;101087.53;5559325;32;33695;-55
2022/04/28 10:51:42;;;;;;;7.10;4.18;;;;;;;17.35;47.01;101097.31;5565757;31;33667;-57
2022/04/28 10:54:46;;;;;;;4.93;4.05;;;;;;;17.34;46.40;101092.97;5566261;32;33286;-55
2022/04/28 10:57:48;;;;;;;5.00;3.87;;;;;;;17.43;46.09;101087.63;5572367;31;33748;-55
2022/04/28 11:00:51;;;;;;;5.82;4.22;;;;;;;17.37;46.08;101091.56;5575832;31;34498;-55
2022/04/28 11:03:56;;;;;;;5.12;3.55;;;;;;;17.42;46.26;101087.94;5561351;32;33754;-55
2022/04/28 11:06:59;;;;;;;7.05;3.85;;;;;;;17.47;46.96;101093.22;5568517;31;33734;-55
2022/04/28 11:10:07;;;;;;;5.28;4.00;;;;;;;17.54;44.69;101099.00;5567495;31;33824;-55
2022/04/28 11:13:09;;;;;;;7.00;5.62;;;;;;;17.60;49.74;101100.50;5560719;32;34131;-55
2022/04/28 11:16:12;;;;;;;17.90;5.28;;;;;;;17.65;49.10;101102.25;5559034;32;33294;-55
2022/04/28 11:19:15;;;;;;;6.60;5.03;;;;;;;17.46;49.20;101110.63;5567577;32;34397;-55
2022/04/28 11:22:17;;;;;;;6.70;5.22;;;;;;;17.41;50.59;101113.44;5561048;31;34342;-55
2022/04/28 11:25:22;;;;;;;8.45;4.80;;;;;;;17.49;50.77;101108.09;5567823;31;33247;-55
2022/04/28 11:28:26;;;;;;;6.57;4.78;;;;;;;17.53;50.72;101106.34;5566100;32;33672;-56
2022/04/28 11:31:28;;;;;;;6.18;4.30;;;;;;;17.60;49.80;101106.72;5560392;32;33482;-55
2022/04/28 11:34:31;;;;;;;5.50;4.57;;;;;;;17.65;50.62;101108.50;5564955;32;33731;-55
2022/04/28 11:37:37;;;;;;;7.22;4.85;;;;;;;17.60;48.37;101098.59;5563573;31;34398;-55
2022/04/28 11:40:42;;;;;;;6.47;4.57;;;;;;;17.62;49.65;101109.13;5566144;32;33942;-56
2022/04/28 11:43:44;;;;;;;6.53;4.72;;;;;;;17.67;48.78;101111.69;5558994;32;33638;-55
2022/04/28 11:46:51;;;;;;;6.50;4.87;;;;;;;17.68;48.68;101110.59;5563499;32;33964;-55
2022/04/28 11:50:02;;;;;;;6.87;4.80;;;;;;;17.67;49.57;101125.25;5552987;32;33620;-55
2022/04/28 11:53:06;;;;;;;6.12;4.93;;;;;;;17.65;48.16;101132.09;5547741;32;34097;-55
2022/04/28 11:56:20;;;;;;;8.07;5.20;;;;;;;17.61;48.17;101116.47;5547814;32;34349;-55
2022/04/28 11:59:22;;;;;;;6.57;4.80;;;;;;;17.58;48.71;101121.69;5547726;32;34346;-55
2022/04/28 12:02:35;;;;;;;6.72;4.70;;;;;;;17.62;47.21;101114.56;5559645;32;33581;-55
2022/04/28 12:05:38;;;;;;;5.62;4.78;;;;;;;17.65;48.57;101115.81;5567009;32;33879;-55
2022/04/28 12:08:40;;;;;;;8.18;4.70;;;;;;;17.62;48.51;101107.22;5566496;32;33755;-56
2022/04/28 12:15:06;;;;;;;9.00;4.82;;;;;;;17.87;46.65;101117.75;5566974;32;34329;-55
2022/04/28 12:21:37;;;;;;;5.68;4.70;;;;;;;17.93;45.83;101119.22;5567780;32;34200;-55
2022/04/28 12:24:43;;;;;;;8.20;4.97;;;;;;;17.93;47.52;101116.50;5567721;32;33335;-56
2022/04/28 12:27:51;;;;;;;6.57;4.07;;;;;;;17.95;47.47;101117.81;5565947;32;34022;-55
2022/04/28 12:30:53;;;;;;;6.57;4.00;;;;;;;17.98;48.60;101119.06;5568059;32;33846;-55
2022/04/28 12:34:12;;;;;;;5.45;4.12;;;;;;;17.98;46.11;101127.19;5556930;32;33702;-55
2022/04/28 12:37:24;;;;;;;7.43;3.95;;;;;;;17.91;47.17;101107.87;5568045;32;34325;-55
2022/04/28 12:40:34;;;;;;;4.80;3.65;;;;;;;18.05;46.05;101108.59;5571433;31;34445;-55
2022/04/28 12:43:48;;;;;;;6.62;4.25;;;;;;;18.15;47.01;101111.03;5575683;31;33589;-55
2022/04/28 12:46:55;;;;;;;5.47;3.95;;;;;;;18.29;46.78;101105.50;5563565;32;33223;-55
2022/04/28 12:49:58;;;;;;;4.90;3.80;;;;;;;18.28;45.94;101117.47;5556547;32;33754;-55
2022/04/28 12:53:02;;;;;;;5.10;3.78;;;;;;;18.27;45.84;101111.22;5568887;32;33429;-55
2022/04/28 12:56:17;;;;;;;5.25;3.70;;;;;;;18.21;45.63;101112.50;5568837;32;34362;-55
2022/04/28 12:59:21;;;;;;;6.60;4.10;;;;;;;18.07;44.49;101107.16;5561818;32;33665;-55
2022/04/28 13:02:30;;;;;;;7.32;4.40;;;;;;;18.04;44.67;101115.09;5564764;32;33664;-55
2022/04/28 13:05:32;;;;;;;6.10;4.20;;;;;;;18.14;47.40;101112.13;5568257;32;33505;-55
2022/04/28 13:08:37;;;;;;;6.53;3.53;;;;;;;18.12;45.42;101108.94;5560693;32;33284;-55
2022/04/28 13:11:44;;;;;;;11.70;4.35;;;;;;;18.08;44.55;101114.19;5549883;32;34510;-55
2022/04/28 13:14:46;;;;;;;6.32;4.15;;;;;;;18.08;46.42;101118.81;5549557;32;34464;-55
2022/04/28 13:17:48;;;;;;;4.93;3.90;;;;;;;18.11;45.49;101114.66;5566560;32;33677;-55
2022/04/28 13:20:51;;;;;;;4.90;3.67;;;;;;;18.06;44.35;101115.59;5560965;32;33683;-55
2022/04/28 13:23:54;;;;;;;5.87;3.60;;;;;;;18.15;43.89;101111.03;5556710;32;33237;-55
2022/04/28 13:26:58;;;;;;;7.55;3.90;;;;;;;18.13;45.31;101115.97;5568398;31;33975;-55
2022/04/28 13:30:03;;;;;;;4.90;3.78;;;;;;;18.24;45.38;101125.41;5568373;32;33721;-55
2022/04/28 13:33:06;;;;;;;4.72;3.75;;;;;;;18.29;44.74;101109.00;5562333;32;32218;-55
2022/04/28 13:36:13;;;;;;;4.55;3.60;;;;;;;18.31;43.54;101106.78;5549457;32;34249;-55
2022/04/28 13:39:16;;;;;;;5.35;3.83;;;;;;;18.36;43.76;101113.97;5556816;32;34335;-56
2022/04/28 13:42:18;;;;;;;6.00;3.65;;;;;;;18.36;43.19;101121.31;5568646;31;34254;-55
2022/04/28 13:45:20;;;;;;;5.62;3.67;;;;;;;18.36;42.62;101108.53;5568207;32;34161;-55
2022/04/28 13:48:22;;;;;;;4.47;3.30;;;;;;;18.45;42.93;101111.28;5554655;32;34150;-55
2022/04/28 13:51:24;;;;;;;3.62;2.97;;;;;;;18.53;43.04;101107.78;5549383;32;34307;-56
2022/04/28 13:54:27;;;;;;;4.10;3.25;;;;;;;18.60;44.29;101112.75;5564551;32;33683;-55
2022/04/28 13:57:29;;;;;;;5.20;3.30;;;;;;;18.65;42.55;101109.91;5567974;32;33719;-55
2022/04/28 14:00:32;;;;;;;10.45;3.67;;;;;;;18.74;42.43;101099.84;5567290;32;34275;-56
2022/04/28 14:03:35;;;;;;;5.65;3.15;;;;;;;18.67;40.09;101108.44;5568816;32;33323;-55
2022/04/28 14:06:37;;;;;;;6.40;3.37;;;;;;;18.76;41.05;101097.63;5561905;32;33743;-55
2022/04/28 14:09:39;;;;;;;8.25;3.22;;;;;;;18.71;39.51;101097.78;5557754;32;33981;-55
2022/04/28 14:12:42;;;;;;;7.93;3.30;;;;;;;18.69;40.23;101100.78;5557431;32;33696;-55
2022/04/28 14:15:45;;;;;;;6.12;3.12;;;;;;;18.74;40.96;101100.69;5556595;32;33761;-55
2022/04/28 14:18:47;;;;;;;3.40;2.75;;;;;;;18.77;42.04;101101.94;5558683;32;34039;-55
2022/04/28 14:21:50;;;;;;;4.60;3.03;;;;;;;18.79;41.13;101105.16;5559720;32;34336;-55
2022/04/28 14:24:52;;;;;;;5.05;2.92;;;;;;;18.88;42.51;101103.25;5558082;32;34452;-55
2022/04/28 14:27:55;;;;;;;5.93;3.12;;;;;;;18.93;45.03;101103.06;5559807;32;33659;-55
2022/04/28 14:30:57;;;;;;;10.18;3.45;;;;;;;18.92;41.76;101100.69;5556823;32;33618;-55
2022/04/28 14:34:21;;;;;;;5.95;3.35;;;;;;;18.99;46.56;101098.28;5566076;32;34490;-55
2022/04/28 14:37:24;;;;;;;5.62;3.37;;;;;;;19.03;43.22;101104.69;5568815;32;34307;-55
2022/04/28 14:40:26;;;;;;;4.07;3.25;;;;;;;18.96;41.42;101102.44;5561410;32;33514;-55
2022/04/28 14:43:29;;;;;;;4.07;3.33;;;;;;;18.93;41.49;101092.22;5563449;32;34328;-55
2022/04/28 14:46:32;;;;;;;4.03;3.20;;;;;;;18.92;43.46;101095.25;5567731;32;34401;-56
2022/04/28 14:52:56;;;;;;;4.90;3.40;;;;;;;18.88;41.85;101094.31;5561049;32;34446;-55
2022/04/28 14:55:58;;;;;;;4.40;3.47;;;;;;;18.90;40.70;101090.13;5567158;32;34246;-56
2022/04/28 14:59:01;;;;;;;5.43;3.42;;;;;;;18.98;39.88;101094.00;5553319;32;34330;-56
2022/04/28 15:02:03;;;;;;;5.82;3.00;;;;;;;19.03;39.21;101088.37;5560670;32;33212;-56
2022/04/28 15:05:07;;;;;;;6.45;3.65;;;;;;;18.96;38.67;101094.28;5552186;32;33780;-55
2022/04/28 15:08:09;;;;;;;4.68;3.00;;;;;;;18.95;43.51;101100.84;5566807;32;34497;-55
2022/04/28 15:11:12;;;;;;;5.53;3.15;;;;;;;18.89;42.49;101093.19;5566596;32;33690;-55
2022/04/28 15:14:14;;;;;;;5.03;3.80;;;;;;;18.82;42.92;101095.56;5556949;32;33735;-55
2022/04/28 15:17:17;;;;;;;6.40;3.58;;;;;;;18.79;40.14;101107.87;5568181;32;33815;-55
2022/04/28 15:20:19;;;;;;;5.60;3.50;;;;;;;18.75;40.79;101102.28;5561633;32;33917;-56
2022/04/28 15:23:22;;;;;;;5.55;3.78;;;;;;;18.75;44.50;101105.00;5562406;32;33714;-56
2022/04/28 15:26:24;;;;;;;6.45;3.47;;;;;;;18.69;43.70;101105.44;5548680;32;34266;-56
2022/04/28 15:29:27;;;;;;;4.55;3.20;;;;;;;18.70;42.88;101110.53;5557033;32;33258;-56
2022/04/28 15:32:29;;;;;;;6.07;3.37;;;;;;;18.78;44.13;101101.63;5566235;32;34318;-55
2022/04/28 15:35:31;;;;;;;5.93;3.75;;;;;;;18.75;44.25;101109.62;5565747;31;33338;-56
2022/04/28 15:38:33;;;;;;;4.45;3.33;;;;;;;18.80;47.57;101114.09;5562151;32;34545;-56
2022/04/28 15:41:37;;;;;;;5.47;3.60;;;;;;;18.75;49.22;101112.34;5565368;32;33825;-56
2022/04/28 15:44:40;;;;;;;4.40;3.20;;;;;;;18.65;46.25;101115.34;5567773;32;33737;-55
2022/04/28 15:47:43;;;;;;;9.77;3.47;;;;;;;18.55;49.73;101111.00;5566552;32;33809;-55
2022/04/28 15:50:45;;;;;;;12.40;4.05;;;;;;;18.50;47.09;101119.28;5567762;32;33151;-55
2022/04/28 15:53:48;;;;;;;6.03;3.53;;;;;;;18.47;43.20;101119.91;5568238;32;34340;-56
2022/04/28 15:56:50;;;;;;;4.15;3.37;;;;;;;18.45;43.03;101124.87;5566568;32;33666;-56
